sensor_id;sensor_type;location;lat;lon;timestamp;temperature;humidity
51733;DHT22;39139;53.144;6.244;2023-10-31T00:00:26;10.40;99.90
51733;DHT22;39139;53.144;6.244;2023-10-31T00:02:51;10.40;99.90
51733;DHT22;39139;53.144;6.244;2023-10-31T00:05:17;10.40;99.90
51733;DHT22;39139;53.144;6.244;2023-10-31T00:07:42;10.40;99.90
51733;DHT22;39139;53.144;6.244;2023-10-31T00:10:08;10.40;99.90
51733;DHT22;39139;53.144;6.244;2023-10-31T00:12:34;10.40;99.90
51733;DHT22;39139;53.144;6.244;2023-10-31T00:15:00;10.40;99.90
51733;DHT22;39139;53.144;6.244;2023-10-31T00:17:25;10.40;99.90
51733;DHT22;39139;53.144;6.244;2023-10-31T00:19:51;10.50;99.90
51733;DHT22;39139;53.144;6.244;2023-10-31T00:22:17;10.30;99.90
51733;DHT22;39139;53.144;6.244;2023-10-31T00:24:43;10.30;99.90
51733;DHT22;39139;53.144;6.244;2023-10-31T00:27:08;10.30;99.90
51733;DHT22;39139;53.144;6.244;2023-10-31T00:29:34;10.40;99.90
51733;DHT22;39139;53.144;6.244;2023-10-31T00:32:00;10.30;99.90
51733;DHT22;39139;53.144;6.244;2023-10-31T00:34:25;10.40;99.90
51733;DHT22;39139;53.144;6.244;2023-10-31T00:36:51;10.30;99.90
51733;DHT22;39139;53.144;6.244;2023-10-31T00:39:17;10.30;99.90
51733;DHT22;39139;53.144;6.244;2023-10-31T00:41:45;10.40;99.90
51733;DHT22;39139;53.144;6.244;2023-10-31T00:44:12;10.50;99.90
51733;DHT22;39139;53.144;6.244;2023-10-31T00:46:37;10.30;99.90
51733;DHT22;39139;53.144;6.244;2023-10-31T00:49:03;10.30;99.90
51733;DHT22;39139;53.144;6.244;2023-10-31T00:51:29;10.40;99.90
51733;DHT22;39139;53.144;6.244;2023-10-31T00:53:55;10.30;99.90
51733;DHT22;39139;53.144;6.244;2023-10-31T00:56:20;10.40;99.90
51733;DHT22;39139;53.144;6.244;2023-10-31T00:58:46;10.30;99.90
51733;DHT22;39139;53.144;6.244;2023-10-31T01:01:11;10.30;99.90
51733;DHT22;39139;53.144;6.244;2023-10-31T01:03:37;10.30;99.90
51733;DHT22;39139;53.144;6.244;2023-10-31T01:06:03;10.30;99.90
51733;DHT22;39139;53.144;6.244;2023-10-31T01:08:29;10.30;99.90
51733;DHT22;39139;53.144;6.244;2023-10-31T01:10:55;10.30;99.90
51733;DHT22;39139;53.144;6.244;2023-10-31T01:13:21;10.20;99.90
51733;DHT22;39139;53.144;6.244;2023-10-31T01:15:47;10.20;99.90
51733;DHT22;39139;53.144;6.244;2023-10-31T01:18:12;10.20;99.90
51733;DHT22;39139;53.144;6.244;2023-10-31T01:20:38;10.20;99.90
51733;DHT22;39139;53.144;6.244;2023-10-31T01:23:04;10.40;99.90
51733;DHT22;39139;53.144;6.244;2023-10-31T01:25:29;10.30;99.90
51733;DHT22;39139;53.144;6.244;2023-10-31T01:27:55;10.30;99.90
51733;DHT22;39139;53.144;6.244;2023-10-31T01:30:20;10.20;99.90
51733;DHT22;39139;53.144;6.244;2023-10-31T01:32:46;10.20;99.90
51733;DHT22;39139;53.144;6.244;2023-10-31T01:35:12;10.20;99.90
51733;DHT22;39139;53.144;6.244;2023-10-31T01:37:37;10.10;99.90
51733;DHT22;39139;53.144;6.244;2023-10-31T01:40:04;10.20;99.90
51733;DHT22;39139;53.144;6.244;2023-10-31T01:42:30;10.20;99.90
51733;DHT22;39139;53.144;6.244;2023-10-31T01:44:56;10.20;99.90
51733;DHT22;39139;53.144;6.244;2023-10-31T01:47:21;10.20;99.90
51733;DHT22;39139;53.144;6.244;2023-10-31T01:49:49;10.20;99.90
51733;DHT22;39139;53.144;6.244;2023-10-31T01:52:16;10.20;99.90
51733;DHT22;39139;53.144;6.244;2023-10-31T01:54:43;10.10;99.90
51733;DHT22;39139;53.144;6.244;2023-10-31T01:57:09;10.20;99.90
51733;DHT22;39139;53.144;6.244;2023-10-31T01:59:35;10.10;99.90
51733;DHT22;39139;53.144;6.244;2023-10-31T02:02:01;10.10;99.90
51733;DHT22;39139;53.144;6.244;2023-10-31T02:04:27;10.10;99.90
51733;DHT22;39139;53.144;6.244;2023-10-31T02:06:53;10.10;99.90
51733;DHT22;39139;53.144;6.244;2023-10-31T02:09:19;10.10;99.90
51733;DHT22;39139;53.144;6.244;2023-10-31T02:11:49;10.10;99.90
51733;DHT22;39139;53.144;6.244;2023-10-31T02:14:14;10.10;99.90
51733;DHT22;39139;53.144;6.244;2023-10-31T02:16:40;10.10;99.90
51733;DHT22;39139;53.144;6.244;2023-10-31T02:19:06;10.10;99.90
51733;DHT22;39139;53.144;6.244;2023-10-31T02:21:32;10.10;99.90
51733;DHT22;39139;53.144;6.244;2023-10-31T02:23:58;10.10;99.90
51733;DHT22;39139;53.144;6.244;2023-10-31T02:26:32;9.90;99.90
51733;DHT22;39139;53.144;6.244;2023-10-31T02:28:58;10.10;99.90
51733;DHT22;39139;53.144;6.244;2023-10-31T02:31:26;10.20;99.90
51733;DHT22;39139;53.144;6.244;2023-10-31T02:33:51;10.10;99.90
51733;DHT22;39139;53.144;6.244;2023-10-31T02:36:17;10.10;99.90
51733;DHT22;39139;53.144;6.244;2023-10-31T02:38:43;10.10;99.90
51733;DHT22;39139;53.144;6.244;2023-10-31T02:41:09;10.10;99.90
51733;DHT22;39139;53.144;6.244;2023-10-31T02:43:35;10.10;99.90
51733;DHT22;39139;53.144;6.244;2023-10-31T02:46:01;10.10;99.90
51733;DHT22;39139;53.144;6.244;2023-10-31T02:48:26;10.10;99.90
51733;DHT22;39139;53.144;6.244;2023-10-31T02:50:52;10.10;99.90
51733;DHT22;39139;53.144;6.244;2023-10-31T02:53:21;10.00;99.90
51733;DHT22;39139;53.144;6.244;2023-10-31T02:55:46;10.10;99.90
51733;DHT22;39139;53.144;6.244;2023-10-31T02:58:12;10.10;99.90
51733;DHT22;39139;53.144;6.244;2023-10-31T03:00:38;10.10;99.90
51733;DHT22;39139;53.144;6.244;2023-10-31T03:03:04;10.10;99.90
51733;DHT22;39139;53.144;6.244;2023-10-31T03:05:30;10.00;99.90
51733;DHT22;39139;53.144;6.244;2023-10-31T03:07:55;10.10;99.90
51733;DHT22;39139;53.144;6.244;2023-10-31T03:10:21;10.10;99.90
51733;DHT22;39139;53.144;6.244;2023-10-31T03:12:47;10.10;99.90
51733;DHT22;39139;53.144;6.244;2023-10-31T03:15:13;9.90;99.90
51733;DHT22;39139;53.144;6.244;2023-10-31T03:17:38;10.10;99.90
51733;DHT22;39139;53.144;6.244;2023-10-31T03:20:05;10.10;99.90
51733;DHT22;39139;53.144;6.244;2023-10-31T03:22:30;10.00;99.90
51733;DHT22;39139;53.144;6.244;2023-10-31T03:24:56;9.90;99.90
51733;DHT22;39139;53.144;6.244;2023-10-31T03:27:22;9.90;99.90
51733;DHT22;39139;53.144;6.244;2023-10-31T03:29:48;10.10;99.90
51733;DHT22;39139;53.144;6.244;2023-10-31T03:32:14;10.10;99.90
51733;DHT22;39139;53.144;6.244;2023-10-31T03:34:41;10.10;99.90
51733;DHT22;39139;53.144;6.244;2023-10-31T03:37:07;10.10;99.90
51733;DHT22;39139;53.144;6.244;2023-10-31T03:39:32;10.20;99.90
51733;DHT22;39139;53.144;6.244;2023-10-31T03:41:59;10.20;99.90
51733;DHT22;39139;53.144;6.244;2023-10-31T03:44:24;9.90;99.90
51733;DHT22;39139;53.144;6.244;2023-10-31T03:46:50;10.20;99.90
51733;DHT22;39139;53.144;6.244;2023-10-31T03:49:16;10.20;99.90
51733;DHT22;39139;53.144;6.244;2023-10-31T03:51:41;10.40;99.90
51733;DHT22;39139;53.144;6.244;2023-10-31T03:54:08;10.60;99.90
51733;DHT22;39139;53.144;6.244;2023-10-31T03:56:40;10.20;99.90
51733;DHT22;39139;53.144;6.244;2023-10-31T03:59:06;10.20;99.90
51733;DHT22;39139;53.144;6.244;2023-10-31T04:01:32;10.20;99.90
51733;DHT22;39139;53.144;6.244;2023-10-31T04:03:57;10.20;99.90
51733;DHT22;39139;53.144;6.244;2023-10-31T04:06:23;10.20;99.90
51733;DHT22;39139;53.144;6.244;2023-10-31T04:08:49;10.20;99.90
51733;DHT22;39139;53.144;6.244;2023-10-31T04:11:14;10.20;99.90
51733;DHT22;39139;53.144;6.244;2023-10-31T04:13:40;10.10;99.90
51733;DHT22;39139;53.144;6.244;2023-10-31T04:16:06;10.30;99.90
51733;DHT22;39139;53.144;6.244;2023-10-31T04:18:31;10.20;99.90
51733;DHT22;39139;53.144;6.244;2023-10-31T04:20:57;10.20;99.90
51733;DHT22;39139;53.144;6.244;2023-10-31T04:23:23;10.20;99.90
51733;DHT22;39139;53.144;6.244;2023-10-31T04:25:49;10.20;99.90
51733;DHT22;39139;53.144;6.244;2023-10-31T04:28:15;10.20;99.90
51733;DHT22;39139;53.144;6.244;2023-10-31T04:30:40;10.00;99.90
51733;DHT22;39139;53.144;6.244;2023-10-31T04:33:06;10.20;99.90
51733;DHT22;39139;53.144;6.244;2023-10-31T04:35:32;10.10;99.90
51733;DHT22;39139;53.144;6.244;2023-10-31T04:37:57;10.20;99.90
51733;DHT22;39139;53.144;6.244;2023-10-31T04:40:23;10.20;99.90
51733;DHT22;39139;53.144;6.244;2023-10-31T04:42:48;10.10;99.90
51733;DHT22;39139;53.144;6.244;2023-10-31T04:45:14;10.10;99.90
51733;DHT22;39139;53.144;6.244;2023-10-31T04:47:41;10.20;99.90
51733;DHT22;39139;53.144;6.244;2023-10-31T04:50:07;10.20;99.90
51733;DHT22;39139;53.144;6.244;2023-10-31T04:52:33;10.10;99.90
51733;DHT22;39139;53.144;6.244;2023-10-31T04:54:58;10.10;99.90
51733;DHT22;39139;53.144;6.244;2023-10-31T04:57:24;10.10;99.90
51733;DHT22;39139;53.144;6.244;2023-10-31T04:59:49;10.10;99.90
51733;DHT22;39139;53.144;6.244;2023-10-31T05:02:15;10.00;99.90
51733;DHT22;39139;53.144;6.244;2023-10-31T05:04:41;10.00;99.90
51733;DHT22;39139;53.144;6.244;2023-10-31T05:07:06;10.10;99.90
51733;DHT22;39139;53.144;6.244;2023-10-31T05:09:32;10.00;99.90
51733;DHT22;39139;53.144;6.244;2023-10-31T05:11:58;9.80;99.90
51733;DHT22;39139;53.144;6.244;2023-10-31T05:14:23;10.00;99.90
51733;DHT22;39139;53.144;6.244;2023-10-31T05:16:49;10.00;99.90
51733;DHT22;39139;53.144;6.244;2023-10-31T05:19:15;10.00;99.90
51733;DHT22;39139;53.144;6.244;2023-10-31T05:21:41;10.00;99.90
51733;DHT22;39139;53.144;6.244;2023-10-31T05:24:07;9.90;99.90
51733;DHT22;39139;53.144;6.244;2023-10-31T05:26:32;10.00;99.90
51733;DHT22;39139;53.144;6.244;2023-10-31T05:28:58;10.00;99.90
51733;DHT22;39139;53.144;6.244;2023-10-31T05:31:24;10.20;99.90
51733;DHT22;39139;53.144;6.244;2023-10-31T05:33:53;10.00;99.90
51733;DHT22;39139;53.144;6.244;2023-10-31T05:36:20;10.20;99.90
51733;DHT22;39139;53.144;6.244;2023-10-31T05:38:45;10.20;99.90
51733;DHT22;39139;53.144;6.244;2023-10-31T05:41:11;10.00;99.90
51733;DHT22;39139;53.144;6.244;2023-10-31T05:43:37;10.00;99.90
51733;DHT22;39139;53.144;6.244;2023-10-31T05:46:03;10.10;99.90
51733;DHT22;39139;53.144;6.244;2023-10-31T05:48:28;10.10;99.90
51733;DHT22;39139;53.144;6.244;2023-10-31T05:50:55;10.10;99.90
51733;DHT22;39139;53.144;6.244;2023-10-31T05:53:21;10.10;99.90
51733;DHT22;39139;53.144;6.244;2023-10-31T05:55:47;10.10;99.90
51733;DHT22;39139;53.144;6.244;2023-10-31T05:58:12;10.00;99.90
51733;DHT22;39139;53.144;6.244;2023-10-31T06:00:38;10.10;99.90
51733;DHT22;39139;53.144;6.244;2023-10-31T06:03:03;10.20;99.90
51733;DHT22;39139;53.144;6.244;2023-10-31T06:05:30;10.20;99.90
51733;DHT22;39139;53.144;6.244;2023-10-31T06:07:55;10.10;99.90
51733;DHT22;39139;53.144;6.244;2023-10-31T06:10:21;10.10;99.90
51733;DHT22;39139;53.144;6.244;2023-10-31T06:12:47;10.20;99.90
51733;DHT22;39139;53.144;6.244;2023-10-31T06:15:13;10.20;99.90
51733;DHT22;39139;53.144;6.244;2023-10-31T06:17:38;10.20;99.90
51733;DHT22;39139;53.144;6.244;2023-10-31T06:20:07;10.20;99.90
51733;DHT22;39139;53.144;6.244;2023-10-31T06:22:33;10.30;99.90
51733;DHT22;39139;53.144;6.244;2023-10-31T06:24:59;10.30;99.90
51733;DHT22;39139;53.144;6.244;2023-10-31T06:27:24;10.30;99.90
51733;DHT22;39139;53.144;6.244;2023-10-31T06:29:50;10.30;99.90
51733;DHT22;39139;53.144;6.244;2023-10-31T06:32:16;10.30;99.90
51733;DHT22;39139;53.144;6.244;2023-10-31T06:34:41;10.30;99.90
51733;DHT22;39139;53.144;6.244;2023-10-31T06:37:07;10.30;99.90
51733;DHT22;39139;53.144;6.244;2023-10-31T06:39:32;10.50;99.90
51733;DHT22;39139;53.144;6.244;2023-10-31T06:41:58;10.30;99.90
51733;DHT22;39139;53.144;6.244;2023-10-31T06:44:24;10.30;99.90
51733;DHT22;39139;53.144;6.244;2023-10-31T06:46:49;10.10;99.90
51733;DHT22;39139;53.144;6.244;2023-10-31T06:49:15;10.30;99.90
51733;DHT22;39139;53.144;6.244;2023-10-31T06:51:41;10.20;99.90
51733;DHT22;39139;53.144;6.244;2023-10-31T06:54:07;10.30;99.90
51733;DHT22;39139;53.144;6.244;2023-10-31T06:56:32;10.20;99.90
51733;DHT22;39139;53.144;6.244;2023-10-31T06:58:58;10.20;99.90
51733;DHT22;39139;53.144;6.244;2023-10-31T07:01:24;10.20;99.90
51733;DHT22;39139;53.144;6.244;2023-10-31T07:03:50;10.20;99.90
51733;DHT22;39139;53.144;6.244;2023-10-31T07:06:16;10.20;99.90
51733;DHT22;39139;53.144;6.244;2023-10-31T07:08:41;10.20;99.90
51733;DHT22;39139;53.144;6.244;2023-10-31T07:11:07;10.20;99.90
51733;DHT22;39139;53.144;6.244;2023-10-31T07:13:32;10.30;99.90
51733;DHT22;39139;53.144;6.244;2023-10-31T07:15:58;10.20;99.90
51733;DHT22;39139;53.144;6.244;2023-10-31T07:18:23;10.20;99.90
51733;DHT22;39139;53.144;6.244;2023-10-31T07:20:49;10.30;99.90
51733;DHT22;39139;53.144;6.244;2023-10-31T07:23:15;10.30;99.90
51733;DHT22;39139;53.144;6.244;2023-10-31T07:25:41;10.30;99.90
51733;DHT22;39139;53.144;6.244;2023-10-31T07:28:06;10.30;99.90
51733;DHT22;39139;53.144;6.244;2023-10-31T07:30:32;10.30;99.90
51733;DHT22;39139;53.144;6.244;2023-10-31T07:32:58;10.30;99.90
51733;DHT22;39139;53.144;6.244;2023-10-31T07:35:23;10.40;99.90
51733;DHT22;39139;53.144;6.244;2023-10-31T07:37:49;10.40;99.90
51733;DHT22;39139;53.144;6.244;2023-10-31T07:40:15;10.50;99.90
51733;DHT22;39139;53.144;6.244;2023-10-31T07:42:40;10.30;99.90
51733;DHT22;39139;53.144;6.244;2023-10-31T07:45:06;10.30;99.90
51733;DHT22;39139;53.144;6.244;2023-10-31T07:47:32;10.40;99.90
51733;DHT22;39139;53.144;6.244;2023-10-31T07:49:58;10.40;99.90
51733;DHT22;39139;53.144;6.244;2023-10-31T07:52:24;10.50;99.90
51733;DHT22;39139;53.144;6.244;2023-10-31T07:54:50;10.20;99.90
51733;DHT22;39139;53.144;6.244;2023-10-31T07:57:15;10.50;99.90
51733;DHT22;39139;53.144;6.244;2023-10-31T07:59:41;10.80;99.90
51733;DHT22;39139;53.144;6.244;2023-10-31T08:02:06;10.50;99.90
51733;DHT22;39139;53.144;6.244;2023-10-31T08:04:32;10.60;99.90
51733;DHT22;39139;53.144;6.244;2023-10-31T08:06:57;10.60;99.90
51733;DHT22;39139;53.144;6.244;2023-10-31T08:09:23;10.60;99.90
51733;DHT22;39139;53.144;6.244;2023-10-31T08:11:49;10.70;99.90
51733;DHT22;39139;53.144;6.244;2023-10-31T08:14:15;10.60;99.90
51733;DHT22;39139;53.144;6.244;2023-10-31T08:16:43;10.60;99.90
51733;DHT22;39139;53.144;6.244;2023-10-31T08:19:10;10.70;99.90
51733;DHT22;39139;53.144;6.244;2023-10-31T08:21:35;10.60;99.90
51733;DHT22;39139;53.144;6.244;2023-10-31T08:24:04;10.90;99.90
51733;DHT22;39139;53.144;6.244;2023-10-31T08:26:30;10.70;99.90
51733;DHT22;39139;53.144;6.244;2023-10-31T08:28:56;10.70;99.90
51733;DHT22;39139;53.144;6.244;2023-10-31T08:31:22;10.60;99.90
51733;DHT22;39139;53.144;6.244;2023-10-31T08:33:48;10.70;99.90
51733;DHT22;39139;53.144;6.244;2023-10-31T08:36:14;10.70;99.90
51733;DHT22;39139;53.144;6.244;2023-10-31T08:38:40;10.70;99.90
51733;DHT22;39139;53.144;6.244;2023-10-31T08:41:05;10.80;99.90
51733;DHT22;39139;53.144;6.244;2023-10-31T08:43:31;10.70;99.90
51733;DHT22;39139;53.144;6.244;2023-10-31T08:45:57;10.60;99.90
51733;DHT22;39139;53.144;6.244;2023-10-31T08:48:22;10.80;99.90
51733;DHT22;39139;53.144;6.244;2023-10-31T08:50:48;10.90;99.90
51733;DHT22;39139;53.144;6.244;2023-10-31T08:53:14;11.20;99.90
51733;DHT22;39139;53.144;6.244;2023-10-31T08:55:40;10.70;99.90
51733;DHT22;39139;53.144;6.244;2023-10-31T08:58:12;11.00;99.90
51733;DHT22;39139;53.144;6.244;2023-10-31T09:00:41;11.00;99.90
51733;DHT22;39139;53.144;6.244;2023-10-31T09:03:07;11.00;99.90
51733;DHT22;39139;53.144;6.244;2023-10-31T09:05:33;11.00;99.90
51733;DHT22;39139;53.144;6.244;2023-10-31T09:07:59;11.00;99.90
51733;DHT22;39139;53.144;6.244;2023-10-31T09:10:24;11.00;99.90
51733;DHT22;39139;53.144;6.244;2023-10-31T09:12:50;11.00;99.90
51733;DHT22;39139;53.144;6.244;2023-10-31T09:15:15;11.00;99.90
51733;DHT22;39139;53.144;6.244;2023-10-31T09:17:41;11.00;99.90
51733;DHT22;39139;53.144;6.244;2023-10-31T09:20:07;11.00;99.90
51733;DHT22;39139;53.144;6.244;2023-10-31T09:22:34;11.10;99.90
51733;DHT22;39139;53.144;6.244;2023-10-31T09:24:59;11.20;99.90
51733;DHT22;39139;53.144;6.244;2023-10-31T09:27:25;11.20;99.90
51733;DHT22;39139;53.144;6.244;2023-10-31T09:29:50;11.10;99.90
51733;DHT22;39139;53.144;6.244;2023-10-31T09:32:18;11.00;99.90
51733;DHT22;39139;53.144;6.244;2023-10-31T09:34:44;11.00;99.90
51733;DHT22;39139;53.144;6.244;2023-10-31T09:37:09;11.10;99.90
51733;DHT22;39139;53.144;6.244;2023-10-31T09:39:35;11.10;99.90
51733;DHT22;39139;53.144;6.244;2023-10-31T09:42:01;11.10;99.90
51733;DHT22;39139;53.144;6.244;2023-10-31T09:44:26;11.10;99.90
51733;DHT22;39139;53.144;6.244;2023-10-31T09:46:52;11.10;99.90
51733;DHT22;39139;53.144;6.244;2023-10-31T09:49:20;11.50;99.90
51733;DHT22;39139;53.144;6.244;2023-10-31T09:51:46;11.20;99.90
51733;DHT22;39139;53.144;6.244;2023-10-31T09:54:12;11.40;99.90
51733;DHT22;39139;53.144;6.244;2023-10-31T09:56:41;11.20;99.90
51733;DHT22;39139;53.144;6.244;2023-10-31T09:59:07;11.30;99.90
51733;DHT22;39139;53.144;6.244;2023-10-31T10:01:33;11.30;99.90
51733;DHT22;39139;53.144;6.244;2023-10-31T10:03:59;11.40;99.90
51733;DHT22;39139;53.144;6.244;2023-10-31T10:06:25;11.40;99.90
51733;DHT22;39139;53.144;6.244;2023-10-31T10:08:50;11.40;99.90
51733;DHT22;39139;53.144;6.244;2023-10-31T10:11:16;11.50;99.90
51733;DHT22;39139;53.144;6.244;2023-10-31T10:13:42;11.50;99.90
51733;DHT22;39139;53.144;6.244;2023-10-31T10:16:09;11.70;99.90
51733;DHT22;39139;53.144;6.244;2023-10-31T10:18:35;11.80;99.90
51733;DHT22;39139;53.144;6.244;2023-10-31T10:21:05;11.70;99.90
51733;DHT22;39139;53.144;6.244;2023-10-31T10:23:31;12.00;99.90
51733;DHT22;39139;53.144;6.244;2023-10-31T10:25:59;12.00;99.90
51733;DHT22;39139;53.144;6.244;2023-10-31T10:28:26;12.00;99.90
51733;DHT22;39139;53.144;6.244;2023-10-31T10:30:53;11.80;99.90
51733;DHT22;39139;53.144;6.244;2023-10-31T10:33:19;12.00;99.90
51733;DHT22;39139;53.144;6.244;2023-10-31T10:35:45;12.10;99.90
51733;DHT22;39139;53.144;6.244;2023-10-31T10:38:19;11.90;99.90
51733;DHT22;39139;53.144;6.244;2023-10-31T10:40:48;11.90;99.90
51733;DHT22;39139;53.144;6.244;2023-10-31T10:43:25;11.80;99.90
51733;DHT22;39139;53.144;6.244;2023-10-31T10:45:54;11.80;99.90
51733;DHT22;39139;53.144;6.244;2023-10-31T10:48:27;11.60;99.90
51733;DHT22;39139;53.144;6.244;2023-10-31T10:51:06;11.60;99.90
51733;DHT22;39139;53.144;6.244;2023-10-31T10:54:05;11.60;99.90
51733;DHT22;39139;53.144;6.244;2023-10-31T10:56:37;11.60;99.90
51733;DHT22;39139;53.144;6.244;2023-10-31T10:59:08;11.60;99.90
51733;DHT22;39139;53.144;6.244;2023-10-31T11:01:39;11.60;99.90
51733;DHT22;39139;53.144;6.244;2023-10-31T11:04:07;11.70;99.90
51733;DHT22;39139;53.144;6.244;2023-10-31T11:06:33;11.70;99.90
51733;DHT22;39139;53.144;6.244;2023-10-31T11:09:00;12.10;99.90
51733;DHT22;39139;53.144;6.244;2023-10-31T11:11:27;11.70;99.90
51733;DHT22;39139;53.144;6.244;2023-10-31T11:13:53;11.80;99.90
51733;DHT22;39139;53.144;6.244;2023-10-31T11:16:58;11.90;99.90
51733;DHT22;39139;53.144;6.244;2023-10-31T11:19:26;12.00;99.90
51733;DHT22;39139;53.144;6.244;2023-10-31T11:21:54;12.10;99.90
51733;DHT22;39139;53.144;6.244;2023-10-31T11:24:23;12.20;99.90
51733;DHT22;39139;53.144;6.244;2023-10-31T11:26:52;12.20;99.90
51733;DHT22;39139;53.144;6.244;2023-10-31T11:29:19;12.20;99.90
51733;DHT22;39139;53.144;6.244;2023-10-31T11:31:44;12.20;99.90
51733;DHT22;39139;53.144;6.244;2023-10-31T11:34:18;12.10;99.90
51733;DHT22;39139;53.144;6.244;2023-10-31T11:36:45;12.10;99.90
51733;DHT22;39139;53.144;6.244;2023-10-31T11:39:20;12.00;99.90
51733;DHT22;39139;53.144;6.244;2023-10-31T11:41:54;12.00;99.90
51733;DHT22;39139;53.144;6.244;2023-10-31T11:44:26;12.10;99.90
51733;DHT22;39139;53.144;6.244;2023-10-31T11:46:52;12.00;99.90
51733;DHT22;39139;53.144;6.244;2023-10-31T11:49:46;12.00;99.90
51733;DHT22;39139;53.144;6.244;2023-10-31T11:52:18;12.00;99.90
51733;DHT22;39139;53.144;6.244;2023-10-31T11:54:44;12.00;99.90
51733;DHT22;39139;53.144;6.244;2023-10-31T11:57:09;12.00;99.90
51733;DHT22;39139;53.144;6.244;2023-10-31T11:59:39;12.10;99.90
51733;DHT22;39139;53.144;6.244;2023-10-31T12:02:14;12.00;99.90
51733;DHT22;39139;53.144;6.244;2023-10-31T12:04:40;11.90;99.90
51733;DHT22;39139;53.144;6.244;2023-10-31T12:07:05;11.90;99.90
51733;DHT22;39139;53.144;6.244;2023-10-31T12:09:31;11.90;99.90
51733;DHT22;39139;53.144;6.244;2023-10-31T12:11:57;11.80;99.90
51733;DHT22;39139;53.144;6.244;2023-10-31T12:14:22;11.80;99.90
51733;DHT22;39139;53.144;6.244;2023-10-31T12:16:48;11.80;99.90
51733;DHT22;39139;53.144;6.244;2023-10-31T12:19:14;11.80;99.90
51733;DHT22;39139;53.144;6.244;2023-10-31T12:21:46;11.50;99.90
51733;DHT22;39139;53.144;6.244;2023-10-31T12:24:14;11.70;99.90
51733;DHT22;39139;53.144;6.244;2023-10-31T12:26:41;11.70;99.90
51733;DHT22;39139;53.144;6.244;2023-10-31T12:29:18;11.60;99.90
51733;DHT22;39139;53.144;6.244;2023-10-31T12:31:44;11.60;99.90
51733;DHT22;39139;53.144;6.244;2023-10-31T12:34:14;11.50;99.90
51733;DHT22;39139;53.144;6.244;2023-10-31T12:36:40;11.50;99.90
51733;DHT22;39139;53.144;6.244;2023-10-31T12:39:11;11.40;99.90
51733;DHT22;39139;53.144;6.244;2023-10-31T12:41:39;11.40;99.90
51733;DHT22;39139;53.144;6.244;2023-10-31T12:44:05;11.40;99.90
51733;DHT22;39139;53.144;6.244;2023-10-31T12:46:32;11.40;99.90
51733;DHT22;39139;53.144;6.244;2023-10-31T12:48:58;11.30;99.90
51733;DHT22;39139;53.144;6.244;2023-10-31T12:51:24;11.30;99.90
51733;DHT22;39139;53.144;6.244;2023-10-31T12:53:53;11.20;99.90
51733;DHT22;39139;53.144;6.244;2023-10-31T12:56:57;11.10;99.90
51733;DHT22;39139;53.144;6.244;2023-10-31T12:59:24;11.10;99.90
51733;DHT22;39139;53.144;6.244;2023-10-31T13:01:49;11.00;99.90
51733;DHT22;39139;53.144;6.244;2023-10-31T13:04:30;11.00;99.90
51733;DHT22;39139;53.144;6.244;2023-10-31T13:09:22;11.10;99.90
51733;DHT22;39139;53.144;6.244;2023-10-31T13:11:47;11.30;99.90
51733;DHT22;39139;53.144;6.244;2023-10-31T13:14:13;11.00;99.90
51733;DHT22;39139;53.144;6.244;2023-10-31T13:16:39;11.10;99.90
51733;DHT22;39139;53.144;6.244;2023-10-31T13:19:04;11.00;99.90
51733;DHT22;39139;53.144;6.244;2023-10-31T13:21:30;11.00;99.90
51733;DHT22;39139;53.144;6.244;2023-10-31T13:23:55;11.10;99.90
51733;DHT22;39139;53.144;6.244;2023-10-31T13:26:21;11.00;99.90
51733;DHT22;39139;53.144;6.244;2023-10-31T13:28:47;10.90;99.90
51733;DHT22;39139;53.144;6.244;2023-10-31T13:31:12;11.00;99.90
51733;DHT22;39139;53.144;6.244;2023-10-31T13:33:39;11.00;99.90
51733;DHT22;39139;53.144;6.244;2023-10-31T13:36:05;11.00;99.90
51733;DHT22;39139;53.144;6.244;2023-10-31T13:38:31;11.00;99.90
51733;DHT22;39139;53.144;6.244;2023-10-31T13:40:57;11.10;99.90
51733;DHT22;39139;53.144;6.244;2023-10-31T13:43:22;11.10;99.90
51733;DHT22;39139;53.144;6.244;2023-10-31T13:45:48;11.10;99.90
51733;DHT22;39139;53.144;6.244;2023-10-31T13:48:13;11.10;99.90
51733;DHT22;39139;53.144;6.244;2023-10-31T13:50:40;11.30;99.90
51733;DHT22;39139;53.144;6.244;2023-10-31T13:53:06;11.30;99.90
51733;DHT22;39139;53.144;6.244;2023-10-31T13:55:33;11.30;99.90
51733;DHT22;39139;53.144;6.244;2023-10-31T13:57:58;11.20;99.90
51733;DHT22;39139;53.144;6.244;2023-10-31T14:00:24;11.20;99.90
51733;DHT22;39139;53.144;6.244;2023-10-31T14:02:50;11.20;99.90
51733;DHT22;39139;53.144;6.244;2023-10-31T14:05:15;11.30;99.90
51733;DHT22;39139;53.144;6.244;2023-10-31T14:07:41;11.30;99.90
51733;DHT22;39139;53.144;6.244;2023-10-31T14:10:07;11.30;99.90
51733;DHT22;39139;53.144;6.244;2023-10-31T14:12:33;11.20;99.90
51733;DHT22;39139;53.144;6.244;2023-10-31T14:14:58;11.00;99.90
51733;DHT22;39139;53.144;6.244;2023-10-31T14:17:24;11.10;99.90
51733;DHT22;39139;53.144;6.244;2023-10-31T14:19:50;11.10;99.90
51733;DHT22;39139;53.144;6.244;2023-10-31T14:22:15;11.10;99.90
51733;DHT22;39139;53.144;6.244;2023-10-31T14:24:41;11.00;99.90
51733;DHT22;39139;53.144;6.244;2023-10-31T14:27:07;11.00;99.90
51733;DHT22;39139;53.144;6.244;2023-10-31T14:29:33;10.30;99.90
51733;DHT22;39139;53.144;6.244;2023-10-31T14:32:08;11.00;99.90
51733;DHT22;39139;53.144;6.244;2023-10-31T14:34:35;11.00;99.90
51733;DHT22;39139;53.144;6.244;2023-10-31T14:37:01;11.00;99.90
51733;DHT22;39139;53.144;6.244;2023-10-31T14:39:26;11.00;99.90
51733;DHT22;39139;53.144;6.244;2023-10-31T14:41:52;11.00;99.90
51733;DHT22;39139;53.144;6.244;2023-10-31T14:44:18;11.00;99.90
51733;DHT22;39139;53.144;6.244;2023-10-31T14:46:44;11.10;99.90
51733;DHT22;39139;53.144;6.244;2023-10-31T14:49:09;10.70;99.90
51733;DHT22;39139;53.144;6.244;2023-10-31T14:51:36;10.90;99.90
51733;DHT22;39139;53.144;6.244;2023-10-31T14:54:01;11.00;99.90
51733;DHT22;39139;53.144;6.244;2023-10-31T14:56:27;10.90;99.90
51733;DHT22;39139;53.144;6.244;2023-10-31T14:58:54;10.90;99.90
51733;DHT22;39139;53.144;6.244;2023-10-31T15:01:20;10.80;99.90
51733;DHT22;39139;53.144;6.244;2023-10-31T15:03:47;10.90;99.90
51733;DHT22;39139;53.144;6.244;2023-10-31T15:06:12;10.90;99.90
51733;DHT22;39139;53.144;6.244;2023-10-31T15:08:39;10.90;99.90
51733;DHT22;39139;53.144;6.244;2023-10-31T15:11:05;10.80;99.90
51733;DHT22;39139;53.144;6.244;2023-10-31T15:13:31;10.80;99.90
51733;DHT22;39139;53.144;6.244;2023-10-31T15:15:56;10.70;99.90
51733;DHT22;39139;53.144;6.244;2023-10-31T15:18:22;10.60;99.90
51733;DHT22;39139;53.144;6.244;2023-10-31T15:20:48;10.60;99.90
51733;DHT22;39139;53.144;6.244;2023-10-31T15:23:13;10.60;99.90
51733;DHT22;39139;53.144;6.244;2023-10-31T15:25:40;10.70;99.90
51733;DHT22;39139;53.144;6.244;2023-10-31T15:28:05;10.60;99.90